Tiempo atmosférico en la estación meteorológica de Xàtiva, València/Valencia (88 m.)



Fecha
DESCASC
Temp. máxima en grados centígrados (hora)
DESCASC
Temp. mínima en grados centígrados (hora)
DESCASC
Temp. media en grados centígrados
DESCASC
Racha de viento máxima en m/sg (hora)
DESCASC
Velocidad máxima media en intervalos de 10 minutos(hora)
DESCASC
Precipitaciones diarias en mm
DESCASC
Precipitaciones de 00:00 a 06:00 en mm
DESCASC
Precipitaciones de 06:00 a 12:00 en mm
DESCASC
Precipitaciones de 12:00 a 18:00 en mm
DESCASC
Precipitaciones de 18:00 a 24:00 en mm
DESCASC
15-08-2019 35.4 (17:30) 20.9 (06:50) 28.2 10 (15:30) 6.94 (15:30) 0 0 0 0 0
14-08-2019 37.9 (16:30) 19.8 (00:00) 28.9 8.33 (20:50) 5 (19:00) 0 0 0 0 0
13-08-2019 30.7 (18:50) 21.5 (00:00) 26.1 9.44 (15:10) 5.28 (14:50) 0 0 0 0 0
12-08-2019 31 (14:30) 21.7 (00:00) 26.4 9.72 (14:50) 6.39 (16:00) 0 0 0 0 0
11-08-2019 40.2 (16:30) 25.4 (00:00) 32.8 9.72 (17:00) 5.56 (17:00) 0 0 0 0 0
10-08-2019 37.7 (13:50) 25.6 (00:00) 31.7 9.72 (14:10) 6.39 (14:30) 0 0 0 0 0
09-08-2019 43.5 (17:00) 21.1 (00:00) 32.3 10.56 (17:10) 4.72 (19:10) 0 0 0 0 0
08-08-2019 42.3 (17:30) 21.7 (00:00) 32 7.78 (13:50) 3.89 (18:30) 0 0 0 0 0
07-08-2019 39.5 (17:30) 21.8 (00:00) 30.6 9.17 (17:10) 5.56 (17:10) 0 0 0 0 0
06-08-2019 38.3 (15:40) 24.4 (00:00) 31.3 10 (17:20) 6.39 (17:20) 0 0 0 0 0
05-08-2019 34.7 (17:30) 23.5 (00:00) 29.1 8.33 (17:00) 5 (17:10) 0 0 0 0 0
04-08-2019 35.3 (14:20) 20.7 (00:00) 28 9.17 (16:40) 5.56 (16:40) 0 0 0 0 0
03-08-2019 35.3 (16:40) 20.8 (00:00) 28 8.06 (18:50) 5.28 (18:50) 0 0 0 0 0
02-08-2019 34.3 (16:30) 20.4 (00:00) 27.3 8.61 (19:30) 5.56 (16:50) 0 0 0 0 0
01-08-2019 31.9 (14:30) 20.5 (00:00) 26.2 8.89 (18:20) 5.56 (18:40) 0 0 0 0 0
31-07-2019 -- (--) -- (--) -- -- (--) -- (--) -- -- -- 0 0
30-07-2019 -- (--) -- (--) -- -- (--) -- (--) -- -- -- -- --
29-07-2019 -- (--) -- (--) -- -- (--) -- (--) -- -- -- -- --
28-07-2019 -- (--) -- (--) -- -- (--) -- (--) -- -- -- -- --
27-07-2019 -- (--) -- (--) -- -- (--) -- (--) -- -- -- -- --
26-07-2019 -- (--) -- (--) -- -- (--) -- (--) -- -- -- -- --
25-07-2019 -- (--) -- (--) -- -- (--) -- (--) -- -- -- -- --
24-07-2019 -- (--) -- (--) -- -- (--) -- (--) -- -- -- -- --
23-07-2019 -- (--) -- (--) -- -- (--) -- (--) -- -- -- -- --
22-07-2019 -- (--) -- (--) -- -- (--) -- (--) -- 0 0 0 --
21-07-2019 34 (16:10) 22.4 (00:00) 28.2 9.72 (13:50) 6.11 (16:30) 0 0 0 0 0
20-07-2019 33.7 (15:20) 21.8 (06:20) 27.8 9.17 (15:50) 6.11 (16:10) 0 0 0 0 0
19-07-2019 34.5 (17:00) 20.8 (00:00) 27.6 9.72 (15:50) 5 (15:00) 0 0 0 0 0

Gráficas

Temp. máximas Temp. mínimas Temp. medias Precipitaciones Rachas de viento máximas Velocidades máximas media en intervalos de 10 minutos

Datos horarios

Fecha y hora oficial Temperatura (ºC) Velocidad del viento (km/h) Dirección del viento Racha (km/h) Dirección de racha Precipitación (mm) Presión (hPa) Tendencia (hPa) Humedad (%)
2019-08-17 23:00:00 25.6 3 Norte 13 Nordeste 0 1003.4 1.9 84
2019-08-17 22:00:00 26 6 Nordeste 72 Este 0 1002.9 1.8 82
2019-08-17 21:00:00 27.2 10 Nordeste 26 Norte 0 1002.1 1 75
2019-08-17 20:00:00 30.3 12 Norte 25 Norte 0 1001.5 0.2 55
2019-08-17 19:00:00 33.5 14 Norte 27 Norte 0 1001.1 -0.8 46
2019-08-17 18:00:00 36 10 Noroeste 27 Noroeste 0 1001.1 -1.7 40
2019-08-17 17:00:00 36.9 13 Noroeste 27 Noroeste 0 1001.3 -2.1 37
2019-08-17 16:00:00 36.8 13 Norte 24 Norte 0 1001.9 -2.5 36
2019-08-17 15:00:00 36.2 13 Norte 24 Nordeste 0 1002.8 -2.4 35
2019-08-17 14:00:00 35.5 10 Nordeste 19 Nordeste 0 1003.4 -2.3 29
2019-08-17 13:00:00 33.8 7 Nordeste 17 Nordeste 0 1004.4 -1.4 31
2019-08-17 12:00:00 31.4 5 Norte 14 Norte 0 1005.2 -0.6 43
2019-08-17 11:00:00 29.2 4 Nordeste 9 Este 0 1005.7 0.1 53
2019-08-17 10:00:00 26.6 3 Oeste 8 Oeste 0 1005.8 0.6 66
2019-08-17 09:00:00 23.6 4 Oeste 10 Oeste 0 1005.8 1 78
2019-08-17 08:00:00 21.9 5 Oeste 10 Sudoeste 0 1005.6 0.9 85
2019-08-17 07:00:00 21.6 5 Oeste 10 Oeste 0 1005.2 0.1 89
2019-08-17 06:00:00 22.1 3 Oeste 8 Sudoeste 0 1004.8 -0.8 87
2019-08-17 05:00:00 22.5 4 Noroeste 8 Oeste 0 1004.7 -1.3 86
2019-08-17 04:00:00 23.6 0 Calma 4 Sudeste 0 1005.1 -1.3 82
2019-08-17 03:00:00 24.5 3 Este 4 Norte 0 1005.6 -0.7 81
2019-08-17 02:00:00 24.9 2 Norte 6 Norte 0 1006 -0.2 79
2019-08-17 01:00:00 24.9 2 Norte 6 Nordeste 0 1006.4 0.8 79
2019-08-17 00:00:00 25.1 0 Calma 9 Norte 0 1006.3 1.8 78
2019-08-16 23:00:00 25.5 3 Este 13 Nordeste 0 1006.2 2.3 77
2019-08-16 22:00:00 26.1 6 Nordeste 18 Norte 0 1005.6 2.2 76
2019-08-16 21:00:00 27.8 6 Nordeste 21 Noroeste 0 1004.5 1 66
2019-08-16 20:00:00 29.8 16 Norte 31 Noroeste 0 1003.9 -0.2 57
2019-08-16 19:00:00 32.4 15 Noroeste 29 Noroeste 0 1003.4 -1.3 47
2019-08-16 18:00:00 34.4 16 Norte 28 Noroeste 0 1003.5 -1.8 39
2019-08-16 17:00:00 34.5 10 Nordeste 28 Nordeste 0 1004.1 -1.8 37
2019-08-16 16:00:00 33.8 16 Nordeste 30 Nordeste 0 1004.7 -2.2 41
2019-08-16 15:00:00 34.1 14 Este 27 Nordeste 0 1005.3 -2.5 39
2019-08-16 14:00:00 33.4 14 Nordeste 23 Norte 0 1005.9 -2.3 36
2019-08-16 13:00:00 32 6 Noroeste 18 Nordeste 0 1006.9 -1.3 40
2019-08-16 12:00:00 29.9 7 Nordeste 14 Nordeste 0 1007.8 -0.3 45
2019-08-16 11:00:00 27.9 4 Noroeste 10 Noroeste 0 1008.2 0.2 56
2019-08-16 10:00:00 27.5 5 Noroeste 10 Oeste 0 1008.2 0.6 63
2019-08-16 09:00:00 25.2 5 Oeste 10 Oeste 0 1008.1 0.8 74
2019-08-16 08:00:00 23.4 6 Oeste 9 Oeste 0 1008 0.6 81
2019-08-16 07:00:00 23 6 Oeste 9 Oeste 0 1007.6 0.1 82
2019-08-16 06:00:00 23.4 5 Oeste 8 Oeste 0 1007.3 -0.5 81
2019-08-16 05:00:00 23.4 4 Oeste 6 Oeste 0 1007.4 -0.6 82
2019-08-16 04:00:00 23.6 5 Oeste 9 Oeste 0 1007.5 -0.6 81
2019-08-16 03:00:00 24 4 Oeste 8 Oeste 0 1007.8 -0.3 80
2019-08-16 02:00:00 24.7 4 Oeste 7 Oeste 0 1008 0.1 78
2019-08-16 01:00:00 24.7 4 Oeste 9 Oeste 0 1008.1 1 77
2019-08-16 00:00:00 25 6 Oeste 16 Noroeste 0 1008.1 2.1 76
2019-08-15 23:00:00 25.4 6 Noroeste 22 Noroeste 0 1007.9 3 75
2019-08-15 22:00:00 25.8 10 Norte 26 Norte 0 1007.1 2.8 74
2019-08-15 21:00:00 27.7 10 Norte 29 Norte 0 1006 1.8 62
2019-08-15 20:00:00 31 10 Norte 26 Norte 0 1004.9 0.3 46
2019-08-15 19:00:00 33.1 17 Norte 31 Norte 0 1004.3 -0.8 37
2019-08-15 18:00:00 34.8 15 Norte 33 Norte 0 1004.2 -1.4 34
2019-08-15 17:00:00 34.8 16 Norte 33 Norte 0 1004.6 -1.6 34
2019-08-15 16:00:00 34.5 15 Norte 36 Norte 0 1005.1 -1.8 40
2019-08-15 15:00:00 33.9 23 Norte 35 Norte 0 1005.6 -2 42
2019-08-15 14:00:00 33.4 17 Norte 27 Nordeste 0 1006.2 -1.6 41
2019-08-15 13:00:00 32.6 9 Nordeste 18 Nordeste 0 1006.9 -1 39
2019-08-15 12:00:00 30.9 7 Nordeste 14 Nordeste 0 1007.6 -0.3 44
2019-08-15 11:00:00 29.8 4 Nordeste 12 Nordeste 0 1007.8 0 48
2019-08-15 10:00:00 27.3 2 Este 10 Este 0 1007.9 0.6 58
2019-08-15 09:00:00 24 5 Oeste 13 Oeste 0 1007.9 1.2 68
2019-08-15 08:00:00 21.8 7 Oeste 13 Oeste 0 1007.8 1.2 75
2019-08-15 07:00:00 20.9 5 Oeste 8 Oeste 0 1007.3 0.5 79
2019-08-15 06:00:00 21.6 6 Oeste 12 Sudoeste 0 1006.7 -0.3 76
2019-08-15 05:00:00 22.1 6 Oeste 10 Sudoeste 0 1006.6 -0.7 75
2019-08-15 04:00:00 22.8 7 Oeste 10 Oeste 0 1006.8 -0.7 74
2019-08-15 03:00:00 23.7 5 Oeste 6 Oeste 0 1007 -0.5 74
2019-08-15 02:00:00 25 0 Calma 5 Este 0 1007.3 0.4 73
2019-08-15 01:00:00 25.6 4 Este 8 Nordeste 0 1007.5 1.1 68
2019-08-15 00:00:00 26 6 Nordeste 17 Norte 0 1007.5 2.6 65
2019-08-14 23:00:00 27.1 9 Norte 17 Norte 0 1006.9 2.9 57
2019-08-14 22:00:00 28.5 8 Norte 24 Norte 0 1006.4 2.7 45
2019-08-14 21:00:00 29.8 12 Norte 30 Norte 0 1004.9 1.2 46
2019-08-14 20:00:00 34.9 13 Sudeste 28 Este 0 1004 -0.1 30
2019-08-14 19:00:00 36 18 Sudeste 28 Sudeste 0 1003.7 -0.9 26
2019-08-14 18:00:00 36.8 10 Este 26 Este 0 1003.7 -1.7 24
2019-08-14 17:00:00 37.2 13 Este 22 Este 0 1004.1 -2.2 23
2019-08-14 16:00:00 36.8 11 Nordeste 22 Nordeste 0 1004.6 -2.5 21
2019-08-14 15:00:00 36.2 5 Sudoeste 21 Oeste 0 1005.4 -2.4 22
2019-08-14 14:00:00 34.9 5 Sudeste 25 Sur 0 1006.3 -2.1 25
2019-08-14 13:00:00 33.2 8 Sudoeste 22 Sudoeste 0 1007.1 -1.6 31
2019-08-14 12:00:00 30.9 5 Este 17 Sudoeste 0 1007.8 -1 38
2019-08-14 11:00:00 29 9 Sudoeste 18 Sudoeste 0 1008.4 -0.4 43
2019-08-14 10:00:00 26.6 4 Sur 16 Oeste 0 1008.7 0.2 52
2019-08-14 09:00:00 23.8 5 Sudeste 12 Sudoeste 0 1008.8 0.5 64
2019-08-14 08:00:00 20.5 2 Oeste 10 Oeste 0 1008.8 0.5 79
2019-08-14 07:00:00 19.9 5 Oeste 13 Oeste 0 1008.5 0 81
2019-08-14 06:00:00 20.4 6 Oeste 14 Oeste 0 1008.3 -0.4 79
2019-08-14 05:00:00 21 7 Oeste 14 Oeste 0 1008.3 -0.5 78
2019-08-14 04:00:00 21.5 7 Oeste 12 Oeste 0 1008.5 -0.3 77
2019-08-14 03:00:00 21.9 6 Oeste 10 Oeste 0 1008.7 0.1 76
2019-08-14 02:00:00 22.9 5 Sudoeste 9 Oeste 0 1008.8 0.4 72
2019-08-14 01:00:00 23.2 6 Oeste 11 Sudoeste 0 1008.8 1.3 70
2019-08-14 00:00:00 23.8 7 Sudoeste 11 Sudoeste 0 1008.6 1.9 67
2019-08-13 23:00:00 23.6 6 Oeste 13 Oeste 0 1008.4 2.4 69
2019-08-13 22:00:00 24.7 4 Norte 12 Nordeste 0 1007.5 1.7 61
2019-08-13 21:00:00 25.8 10 Nordeste 24 Nordeste 0 1006.7 1 58
2019-08-13 20:00:00 28.5 15 Norte 24 Norte 0 1006 -0.4 47
2019-08-13 19:00:00 30 11 Sudeste 26 Nordeste 0 1005.8 -1.2 41
2019-08-13 18:00:00 29.9 14 Norte 27 Norte 0 1005.7 -2.1 42
2019-08-13 17:00:00 28.9 13 Norte 26 Este 0 1006.4 -1.6 45
2019-08-13 16:00:00 28.7 13 Nordeste 34 Norte 0 1007 -1.5 47
2019-08-13 15:00:00 27.9 19 Nordeste 32 Norte 0 1007.8 -1.1 50
2019-08-13 14:00:00 28.3 9 Nordeste 21 Este 0 1008 -0.9 49
2019-08-13 13:00:00 27.4 12 Este 28 Este 0 1008.5 -0.1 52
2019-08-13 12:00:00 26.3 16 Nordeste 31 Este 0 1008.9 0.4 49
2019-08-13 11:00:00 25.3 5 Nordeste 10 Este 0 1008.9 1 58
2019-08-13 10:00:00 25.1 8 Nordeste 14 Nordeste 0 1008.6 0.9 53
2019-08-13 09:00:00 23.6 6 Sudoeste 11 Sur 0 1008.5 0.9 54
2019-08-13 08:00:00 22.2 5 Oeste 10 Sudoeste 0 1007.9 0.3 67
2019-08-13 07:00:00 22.1 5 Oeste 8 Oeste 0 1007.7 0 83
2019-08-13 06:00:00 21.8 3 Oeste 8 Norte 0 1007.6 -0.5 87
2019-08-13 05:00:00 21.9 3 Oeste 9 Oeste 0 1007.6 -0.8 86
2019-08-13 04:00:00 21.9 3 Oeste 6 Oeste 0 1007.7 -0.5 86
2019-08-13 03:00:00 22.3 0 Calma 4 Sur 0 1008.1 0.4 85
2019-08-13 02:00:00 22.9 0 Calma 6 Sudeste 0 1008.4 1.2 83
2019-08-13 01:00:00 23.1 0 Calma 5 Nordeste 0 1008.2 1.8 82
2019-08-13 00:00:00 23.6 2 Nordeste 12 Nordeste 0 1007.7 2.1 79
2019-08-12 23:00:00 24.1 7 Nordeste 15 Norte 0 1007.2 2.5 76
2019-08-12 22:00:00 24.6 9 Nordeste 18 Nordeste 0 1006.4 2.1 75
2019-08-12 21:00:00 25.5 12 Nordeste 25 Nordeste 0 1005.6 1.3 70
2019-08-12 20:00:00 27.1 14 Nordeste 28 Nordeste 0 1004.7 0.4 61
2019-08-12 19:00:00 28.4 16 Nordeste 29 Nordeste 0 1004.3 -0.4 53
2019-08-12 18:00:00 28.2 18 Nordeste 31 Nordeste 0 1004.3 -0.4 54
2019-08-12 17:00:00 28.4 21 Este 33 Este 0 1004.3 -0.7 52
2019-08-12 16:00:00 28.9 23 Nordeste 35 Nordeste 0 1004.7 -0.7 47
2019-08-12 15:00:00 30.6 19 Este 35 Nordeste 0 1004.7 -0.6 38
2019-08-12 14:00:00 30.8 16 Este 34 Nordeste 0 1005 0.1 36
2019-08-12 13:00:00 30 17 Nordeste 31 Nordeste 0 1005.4 0.9 36
2019-08-12 12:00:00 30 15 Nordeste 32 Nordeste 0 1005.3 1.2 37
2019-08-12 11:00:00 29.6 11 Nordeste 21 Nordeste 0 1004.9 1.6 40
2019-08-12 10:00:00 27.4 5 Oeste 14 Oeste 0 1004.5 1.8 25
2019-08-12 09:00:00 24 6 Oeste 17 Oeste 0 1004.1 1.9 36
2019-08-12 08:00:00 22.1 8 Sudoeste 17 Oeste 0 1003.3 1.3 38
2019-08-12 07:00:00 22.2 11 Oeste 17 Oeste 0 1002.7 0.8 44
2019-08-12 06:00:00 23 9 Oeste 16 Sudoeste 0 1002.2 -0.1 50
2019-08-12 05:00:00 24 7 Sudoeste 14 Oeste 0 1002 -0.5 83
2019-08-12 04:00:00 24.8 7 Oeste 10 Oeste 0 1001.9 -1.1 87
2019-08-12 03:00:00 25.9 0 Calma 9 Oeste 0 1002.3 -0.5 86
2019-08-12 02:00:00 26.6 3 Nordeste 7 Norte 0 1002.5 -0.3 84
2019-08-12 01:00:00 26.8 5 Norte 13 Norte 0 1003 1.1 84
2019-08-12 00:00:00 26.5 6 Nordeste 14 Norte 0 1002.8 1.9 85
2019-08-11 23:00:00 26.8 7 Norte 17 Norte 0 1002.8 2.9 85
2019-08-11 22:00:00 27.5 12 Nordeste 21 Nordeste 0 1001.9 2.3 80
2019-08-11 21:00:00 30 7 Este 20 Noroeste 0 1000.9 1.4 65
2019-08-11 20:00:00 33.3 3 Noroeste 22 Norte 0 999.9 0.4 45
2019-08-11 19:00:00 36.6 13 Norte 28 Norte 0 999.6 -0.2 24
2019-08-11 18:00:00 37.4 12 Nordeste 35 Nordeste 0 999.5 -1.2 27
2019-08-11 17:00:00 38.2 20 Nordeste 35 Norte 0 999.5 -2.1 29
2019-08-11 16:00:00 39.2 4 Sur 19 Este 0 999.8 -2.9 22
2019-08-11 15:00:00 37.2 6 Norte 20 Sudeste 0 1000.7 -2.6 27
2019-08-11 14:00:00 35.5 8 Nordeste 23 Este 0 1001.6 -2 32
2019-08-11 13:00:00 34 6 Sudeste 18 Este 0 1002.7 -1.5 37
2019-08-11 12:00:00 31.8 5 Sudoeste 15 Sudeste 0 1003.3 -0.9 46
2019-08-11 11:00:00 30.3 4 Este 13 Nordeste 0 1003.6 -0.2 58
2019-08-11 10:00:00 28 3 Norte 10 Norte 0 1004.2 0.8 71
2019-08-11 09:00:00 26.8 2 Noroeste 8 Oeste 0 1004.2 1 79
2019-08-11 08:00:00 25.5 3 Norte 8 Noroeste 0 1003.8 0.3 88
2019-08-11 07:00:00 25.5 4 Norte 12 Norte 0 1003.4 -0.5 89
2019-08-11 06:00:00 25.8 6 Norte 12 Norte 0 1003.2 -1.2 88
2019-08-11 05:00:00 26 2 Nordeste 7 Nordeste 0 1003.5 -1.2 87
2019-08-11 04:00:00 26 3 Nordeste 6 Nordeste 0 1003.9 -0.9 86
2019-08-11 03:00:00 26.3 4 Nordeste 13 Norte 0 1004.4 -0.5 86
2019-08-11 02:00:00 26.4 10 Norte 16 Norte 0 1004.7 -0.2 86
2019-08-11 01:00:00 26.4 7 Norte 14 Noroeste 0 1004.8 0.4 86
2019-08-11 00:00:00 26.5 9 Norte 23 Norte 0 1004.9 1 85
2019-08-10 23:00:00 26.8 7 Norte 19 Norte 0 1004.9 1.7 83
2019-08-10 22:00:00 27.6 7 Norte 15 Oeste 0 1004.4 1.4 77
2019-08-10 21:00:00 28.9 6 Noroeste 25 Norte 0 1003.9 0.5 68
2019-08-10 20:00:00 31.8 17 Norte 28 Norte 0 1003.2 -0.6 55
2019-08-10 19:00:00 34.8 14 Nordeste 25 Norte 0 1003 -1 36
2019-08-10 18:00:00 35.6 14 Norte 28 Nordeste 0 1003.4 -1.1 34
2019-08-10 17:00:00 36.4 13 Norte 30 Este 0 1003.8 -0.9 31
2019-08-10 16:00:00 36.2 18 Este 31 Nordeste 0 1004 -1.4 30
2019-08-10 15:00:00 36.2 18 Este 35 Nordeste 0 1004.5 -1.5 29
2019-08-10 14:00:00 37.5 13 Nordeste 26 Este 0 1004.7 -1.5 28
2019-08-10 13:00:00 36.5 9 Este 19 Este 0 1005.4 -0.9 26
2019-08-10 12:00:00 35.6 7 Este 17 Noroeste 0 1006 0.1 28
2019-08-10 11:00:00 34 9 Norte 17 Oeste 0 1006.2 0.9 30
2019-08-10 10:00:00 32.6 2 Noroeste 11 Sudoeste 0 1006.3 1.9 32
2019-08-10 09:00:00 29.2 8 Sudoeste 12 Oeste 0 1005.9 2.4 38
2019-08-10 08:00:00 27.4 7 Oeste 21 Sudoeste 0 1005.3 2.1 39
2019-08-10 07:00:00 27.1 11 Oeste 18 Oeste 0 1004.4 1.5 39
2019-08-10 06:00:00 25.7 4 Oeste 11 Sudoeste 0 1003.5 0.7 43
2019-08-10 05:00:00 28.3 8 Sudoeste 18 Sudoeste 0 1003.2 0.3 33
2019-08-10 04:00:00 28 10 Oeste 18 Oeste 0 1002.9 0.1 33
2019-08-10 03:00:00 28.4 8 Oeste 17 Oeste 0 1002.8 0.3 34
2019-08-10 02:00:00 28.1 4 Sudoeste 13 Sudoeste 0 1002.9 0.8 32
2019-08-10 01:00:00 29.4 6 Oeste 15 Oeste 0 1002.8 1.7 31
2019-08-10 00:00:00 30.9 8 Oeste 18 Oeste 0 1002.5 2.4 28
2019-08-09 23:00:00 32.5 5 Oeste 14 Oeste 0 1002.1 2.7 29
2019-08-09 22:00:00 35.3 0 Calma 10 Este 0 1001.1 1.8 23
2019-08-09 21:00:00 37.7 5 Este 16 Noroeste 0 1000.1 0.5 20
2019-08-09 20:00:00 41.4 10 Oeste 27 Oeste 0 999.4 -0.8 13
2019-08-09 19:00:00 43.1 13 Oeste 29 Noroeste 0 999.3 -1.4 10
2019-08-09 18:00:00 43.1 12 Oeste 38 Noroeste 0 999.6 -1.7 11
2019-08-09 17:00:00 43.4 10 Oeste 32 Noroeste 0 1000.2 -1.5 12
2019-08-09 16:00:00 42.5 13 Noroeste 32 Noroeste 0 1000.7 -1.4 12
2019-08-09 15:00:00 41.7 15 Noroeste 27 Noroeste 0 1001.3 -1.1 12
2019-08-09 14:00:00 40.4 13 Noroeste 29 Noroeste 0 1001.7 -0.9 12
2019-08-09 13:00:00 39.2 13 Noroeste 32 Oeste 0 1002.1 -0.6 14
2019-08-09 12:00:00 37.5 5 Nordeste 14 Noroeste 0 1002.4 -0.2 17
2019-08-09 11:00:00 34.9 4 Sudoeste 19 Sudoeste 0 1002.6 0.1 20
2019-08-09 10:00:00 32.1 10 Sudoeste 21 Sudoeste 0 1002.7 0.5 23
2019-08-09 09:00:00 27.5 5 Noroeste 12 Oeste 0 1002.6 0.8 45
2019-08-09 08:00:00 22.2 2 Nordeste 8 Norte 0 1002.5 0.8 65
2019-08-09 07:00:00 21.8 3 Norte 10 Oeste 0 1002.2 0.4 61
2019-08-09 06:00:00 24.2 7 Sudoeste 13 Sudoeste 0 1001.8 0 48
2019-08-09 05:00:00 24.3 5 Oeste 15 Sudoeste 0 1001.7 -0.3 48
2019-08-09 04:00:00 24.1 2 Oeste 11 Sudoeste 0 1001.8 -0.2 54
2019-08-09 03:00:00 23.9 5 Oeste 12 Oeste 0 1001.8 0 77
2019-08-09 02:00:00 25.1 5 Oeste 8 Oeste 0 1002 0.3 81
2019-08-09 01:00:00 26.3 4 Nordeste 7 Nordeste 0 1002 1.5 78
2019-08-09 00:00:00 27 6 Este 10 Nordeste 0 1001.8 2.5 73
2019-08-08 23:00:00 28.4 8 Nordeste 18 Este 0 1001.7 2.9 63
2019-08-08 22:00:00 31 10 Este 19 Noroeste 0 1000.5 1.9 47
2019-08-08 21:00:00 35.2 7 Noroeste 12 Noroeste 0 999.3 0.6 30
2019-08-08 20:00:00 38.3 9 Nordeste 21 Nordeste 0 998.8 -0.2 22
2019-08-08 19:00:00 39.9 10 Nordeste 27 Nordeste 0 998.6 -1.2 19
2019-08-08 18:00:00 40.4 12 Este 26 Nordeste 0 998.7 -1.9 16
2019-08-08 17:00:00 41.6 6 Nordeste 18 Nordeste 0 999 -2.6 12
2019-08-08 16:00:00 41 5 Norte 14 Sudeste 0 999.8 -2.6 13
2019-08-08 15:00:00 39.2 6 Norte 22 Norte 0 1000.6 -2.2 15
2019-08-08 14:00:00 37.7 7 Nordeste 28 Nordeste 0 1001.6 -1.2 17
2019-08-08 13:00:00 36.7 6 Sur 15 Sur 0 1002.4 -0.4 18
2019-08-08 12:00:00 35.1 4 Noroeste 14 Noroeste 0 1002.8 0 21
2019-08-08 11:00:00 33.5 4 Norte 14 Sudoeste 0 1002.8 0.2 22
2019-08-08 10:00:00 30.1 10 Oeste 17 Oeste 0 1002.8 0.5 30
2019-08-08 09:00:00 26.1 9 Oeste 18 Oeste 0 1002.8 0.8 42
2019-08-08 08:00:00 23 12 Oeste 19 Oeste 0 1002.6 0.7 57
2019-08-08 07:00:00 21.9 9 Oeste 14 Oeste 0 1002.3 0.6 72
2019-08-08 06:00:00 22.7 4 Sudoeste 10 Oeste 0 1002 0 88
2019-08-08 05:00:00 23.7 4 Oeste 8 Oeste 0 1001.9 -0.4 88
2019-08-08 04:00:00 24.4 2 Oeste 6 Este 0 1001.7 -0.2 88
2019-08-08 03:00:00 25.4 3 Oeste 9 Sudoeste 0 1002 -0.4 82
2019-08-08 02:00:00 25.4 8 Oeste 14 Oeste 0 1002.3 -0.1 86
2019-08-08 01:00:00 25.8 3 Norte 8 Este 0 1001.9 0.7 85
2019-08-08 00:00:00 25.9 3 Sudoeste 10 Oeste 0 1002.4 1.8 85
2019-08-07 23:00:00 26 5 Noroeste 15 Noroeste 0 1002.4 3 83
2019-08-07 22:00:00 26.4 9 Norte 21 Norte 0 1001.2 2 82
2019-08-07 21:00:00 28 12 Norte 23 Norte 0 1000.6 2.1 70
2019-08-07 20:00:00 30.8 12 Norte 26 Nordeste 0 999.4 1 56
2019-08-07 19:00:00 31.9 9 Nordeste 28 Norte 0 999.2 0.1 48
2019-08-07 18:00:00 37.5 18 Noroeste 33 Oeste 0 998.5 -0.9 27
2019-08-07 17:00:00 38.5 17 Oeste 32 Oeste 0 998.4 -1.5 14
2019-08-07 16:00:00 38.5 7 Nordeste 17 Nordeste 0 999.1 -1.4 13
2019-08-07 15:00:00 39.2 8 Este 20 Este 0 999.4 -1.4 13
2019-08-07 14:00:00 37.4 6 Nordeste 17 Nordeste 0 999.9 -0.7 15
2019-08-07 13:00:00 36.2 5 Este 16 Este 0 1000.5 0.1 15
2019-08-07 12:00:00 35.8 10 Este 19 Nordeste 0 1000.8 1 16
2019-08-07 11:00:00 34.9 4 Noroeste 12 Sudoeste 0 1000.6 1.2 17
2019-08-07 10:00:00 30.1 4 Sudoeste 13 Oeste 0 1000.4 1.3 28
2019-08-07 09:00:00 24.1 6 Oeste 11 Oeste 0 999.8 1.2 64
2019-08-07 08:00:00 22.2 3 Sudoeste 9 Sur 0 999.4 0.9 90
2019-08-07 07:00:00 22.2 3 Oeste 8 Sudoeste 0 999.1 0.5 91
2019-08-07 06:00:00 22.8 4 Oeste 8 Sudeste 0 998.6 -0.8 91
2019-08-07 05:00:00 23.5 3 Oeste 9 Oeste 0 998.5 -1.3 89
2019-08-07 04:00:00 24.5 2 Oeste 5 Oeste 0 998.6 -1.4 89
2019-08-07 03:00:00 24.8 0 Calma 4 Norte 0 999.4 -0.9 89
2019-08-07 02:00:00 25.4 2 Este 5 Nordeste 0 999.8 -0.5 86
2019-08-07 01:00:00 25.4 4 Norte 7 Norte 0 1000 0.4 85
2019-08-07 00:00:00 25.6 0 Calma 8 Norte 0 1000.3 1.7 85
2019-08-06 23:00:00 26.1 3 Norte 16 Norte 0 1000.3 2.1 84
2019-08-06 22:00:00 26.8 7 Nordeste 17 Nordeste 0 999.6 1.9 82
2019-08-06 21:00:00 28.6 10 Nordeste 24 Nordeste 0 998.6 0.5 68
2019-08-06 20:00:00 32 12 Norte 23 Norte 0 998.2 -0.2 49
2019-08-06 19:00:00 34.3 13 Norte 27 Norte 0 997.7 -1.2 46
2019-08-06 18:00:00 35.6 15 Norte 36 Norte 0 998.1 -1.8 41
2019-08-06 17:00:00 36.7 20 Norte 31 Norte 0 998.4 -2.4 40
2019-08-06 16:00:00 37.8 16 Norte 35 Norte 0 998.9 -2.6 33
2019-08-06 15:00:00 37.9 12 Norte 26 Norte 0 999.9 -2.2 26
2019-08-06 14:00:00 36.5 11 Nordeste 23 Nordeste 0 1000.8 -1.6 27
2019-08-06 13:00:00 35.2 8 Norte 25 Norte 0 1001.5 -0.9 28
2019-08-06 12:00:00 33.3 8 Nordeste 14 Nordeste 0 1002.1 -0.2 33
2019-08-06 11:00:00 30.5 5 Norte 14 Este 0 1002.4 0.3 53
2019-08-06 10:00:00 28.5 5 Nordeste 10 Nordeste 0 1002.4 0.5 65
2019-08-06 09:00:00 25.9 4 Oeste 8 Sudoeste 0 1002.3 0.3 76
2019-08-06 08:00:00 24.4 4 Oeste 8 Oeste 0 1002.1 -0.1 85
2019-08-06 07:00:00 24.7 2 Norte 4 Sudeste 0 1001.9 -0.6 87
2019-08-06 06:00:00 25.4 3 Norte 4 Norte 0 1002 -0.6 85
2019-08-06 05:00:00 25.6 0 Calma 4 Norte 0 1002.2 -0.9 84
2019-08-06 04:00:00 25.8 3 Norte 6 Nordeste 0 1002.5 -0.8 84
2019-08-06 03:00:00 25.9 4 Nordeste 8 Norte 0 1002.6 -0.6 83
2019-08-06 02:00:00 26 5 Norte 10 Norte 0 1003.1 0.2 83
2019-08-06 01:00:00 25.9 4 Noroeste 12 Noroeste 0 1003.3 1.1 82
2019-08-06 00:00:00 25.5 6 Noroeste 14 Noroeste 0 1003.2 1.9 84
2019-08-05 23:00:00 25.8 7 Noroeste 17 Noroeste 0 1002.9 2.1 82
2019-08-05 22:00:00 26.6 7 Norte 18 Norte 0 1002.2 1.6 77
2019-08-05 21:00:00 28.1 4 Norte 23 Norte 0 1001.3 0.6 68
2019-08-05 20:00:00 30.8 15 Norte 27 Norte 0 1000.8 -0.2 55
2019-08-05 19:00:00 32.6 18 Norte 26 Norte 0 1000.6 -1.2 47
2019-08-05 18:00:00 33.9 13 Norte 30 Norte 0 1000.7 -1.8 43
2019-08-05 17:00:00 34.4 18 Norte 30 Norte 0 1001 -2.3 44
2019-08-05 16:00:00 34.1 15 Norte 29 Norte 0 1001.8 -2.1 46
2019-08-05 15:00:00 33.6 15 Norte 29 Norte 0 1002.5 -1.8 44
2019-08-05 14:00:00 33 14 Norte 26 Norte 0 1003.3 -1.2 47
2019-08-05 13:00:00 31.9 8 Nordeste 21 Norte 0 1003.9 -1 46
2019-08-05 12:00:00 30.6 9 Nordeste 17 Nordeste 0 1004.3 -0.2 50
2019-08-05 11:00:00 28.9 5 Norte 13 Este 0 1004.5 0.6 57
2019-08-05 10:00:00 27.4 4 Noroeste 14 Sur 0 1004.9 1.3 63
2019-08-05 09:00:00 24.4 6 Oeste 12 Sudoeste 0 1004.5 1.1 72
2019-08-05 08:00:00 23.7 6 Oeste 9 Oeste 0 1003.9 0.2 74
2019-08-05 07:00:00 23.5 5 Oeste 9 Oeste 0 1003.6 -0.5 77
2019-08-05 06:00:00 23.5 7 Oeste 12 Oeste 0 1003.4 -1.1 77
2019-08-05 05:00:00 23.6 5 Oeste 10 Sudoeste 0 1003.7 -1.3 78
2019-08-05 04:00:00 24.3 7 Oeste 10 Oeste 0 1004.1 -0.9 78
2019-08-05 03:00:00 25.1 5 Oeste 10 Noroeste 0 1004.5 -0.1 81
2019-08-05 02:00:00 25.3 5 Noroeste 12 Noroeste 0 1005 1 81
2019-08-05 01:00:00 25.3 5 Noroeste 17 Noroeste 0 1005 1.7 82
2019-08-05 00:00:00 25.3 8 Oeste 14 Oeste 0 1004.6 2.7 77
2019-08-04 23:00:00 25.5 6 Noroeste 22 Norte 0 1004 3.1 73
2019-08-04 22:00:00 26.2 11 Norte 22 Norte 0 1003.3 2.8 69
2019-08-04 21:00:00 28.2 10 Norte 21 Norte 0 1001.9 1.3 58
2019-08-04 20:00:00 31.5 9 Norte 20 Noroeste 0 1000.9 0 47
2019-08-04 19:00:00 33.1 12 Norte 30 Norte 0 1000.5 -1.3 44
2019-08-04 18:00:00 35.1 18 Norte 30 Norte 0 1000.6 -1.5 38
2019-08-04 17:00:00 35 19 Norte 33 Noroeste 0 1000.9 -1.6 43
2019-08-04 16:00:00 34.2 19 Norte 28 Norte 0 1001.8 -1.3 43
2019-08-04 15:00:00 35.1 16 Norte 26 Norte 0 1002.1 -1.4 39
2019-08-04 14:00:00 34.8 9 Nordeste 21 Norte 0 1002.5 -1.5 33
2019-08-04 13:00:00 34 8 Norte 17 Nordeste 0 1003.1 -0.8 28
2019-08-04 12:00:00 32 5 Noroeste 19 Este 0 1003.5 -0.6 39
2019-08-04 11:00:00 29.4 5 Este 14 Este 0 1004 0.3 46
2019-08-04 10:00:00 27.1 3 Noroeste 10 Sudoeste 0 1003.9 0.7 53
2019-08-04 09:00:00 23.9 6 Oeste 13 Oeste 0 1004.1 1.2 62
2019-08-04 08:00:00 21.3 6 Oeste 11 Oeste 0 1003.7 0.7 79
2019-08-04 07:00:00 20.8 3 Oeste 9 Oeste 0 1003.2 0 80
2019-08-04 06:00:00 21.2 5 Oeste 9 Oeste 0 1002.9 -0.5 79
2019-08-04 05:00:00 21.6 4 Oeste 7 Oeste 0 1003 -0.7 79
2019-08-04 04:00:00 22 4 Oeste 7 Oeste 0 1003.2 -0.6 80
2019-08-04 03:00:00 23.1 3 Oeste 7 Sudoeste 0 1003.4 -0.2 75
2019-08-04 02:00:00 24.2 4 Sudoeste 8 Oeste 0 1003.7 0.5 72
2019-08-04 01:00:00 24.4 6 Oeste 9 Oeste 0 1003.8 1.7 69
2019-08-04 00:00:00 24.9 5 Oeste 9 Oeste 0 1003.6 2.4 68
2019-08-03 23:00:00 25.7 6 Norte 12 Norte 0 1003.2 2.1 61
2019-08-03 22:00:00 26.7 0 Calma 15 Noroeste 0 1002.1 1.1 55
2019-08-03 21:00:00 28.6 8 Noroeste 21 Oeste 0 1001.2 0 48
2019-08-03 20:00:00 31.5 6 Noroeste 27 Norte 0 1001.1 -0.6 44
2019-08-03 19:00:00 32.7 18 Norte 29 Norte 0 1001 -1.3 43
2019-08-03 18:00:00 34.8 12 Nordeste 27 Este 0 1001.2 -1.8 35
2019-08-03 17:00:00 35.2 13 Nordeste 24 Nordeste 0 1001.7 -1.9 36
2019-08-03 16:00:00 35 12 Nordeste 26 Norte 0 1002.3 -1.9 37
2019-08-03 15:00:00 34 14 Norte 25 Norte 0 1003 -1.9 44
2019-08-03 14:00:00 33.4 11 Norte 26 Nordeste 0 1003.6 -1.7 43
2019-08-03 13:00:00 31.8 9 Nordeste 20 Nordeste 0 1004.2 -1.1 44
2019-08-03 12:00:00 30.1 8 Norte 14 Norte 0 1004.9 -0.3 48
2019-08-03 11:00:00 28.4 4 Norte 11 Nordeste 0 1005.3 0.2 54
2019-08-03 10:00:00 25.9 3 Noroeste 11 Oeste 0 1005.3 0.5 66
2019-08-03 09:00:00 23.6 6 Sudoeste 12 Sudoeste 0 1005.2 0.8 69
2019-08-03 08:00:00 21.5 6 Oeste 13 Oeste 0 1005.1 0.5 80
2019-08-03 07:00:00 21 6 Oeste 9 Oeste 0 1004.8 -0.2 82
2019-08-03 06:00:00 21.7 4 Oeste 6 Oeste 0 1004.4 -0.8 82
2019-08-03 05:00:00 22.1 4 Oeste 8 Oeste 0 1004.6 -0.8 82
2019-08-03 04:00:00 22.7 5 Oeste 9 Oeste 0 1005 -0.7 81
2019-08-03 03:00:00 22.8 5 Oeste 9 Oeste 0 1005.2 -0.2 85
2019-08-03 02:00:00 23.1 5 Oeste 10 Oeste 0 1005.4 0.4 84
2019-08-03 01:00:00 23.3 5 Oeste 8 Oeste 0 1005.7 1.5 82
2019-08-03 00:00:00 23.9 3 Sudoeste 11 Norte 0 1005.4 2 80
2019-08-02 23:00:00 24.4 8 Norte 17 Norte 0 1005 2.3 77
2019-08-02 22:00:00 25.2 12 Norte 22 Norte 0 1004.2 1.6 69
2019-08-02 21:00:00 26.8 13 Norte 25 Norte 0 1003.4 0.7 60
2019-08-02 20:00:00 29.8 16 Norte 31 Norte 0 1002.7 -0.2 44
2019-08-02 19:00:00 32.1 17 Norte 25 Norte 0 1002.6 -0.9 36
2019-08-02 18:00:00 33.1 15 Norte 30 Norte 0 1002.7 -1.2 32
2019-08-02 17:00:00 33.6 19 Norte 30 Norte 0 1002.9 -1.5 35
2019-08-02 16:00:00 33.8 16 Norte 28 Norte 0 1003.5 -1.3 35
2019-08-02 15:00:00 33.3 15 Norte 30 Norte 0 1003.9 -1.1 33
2019-08-02 14:00:00 32 6 Nordeste 19 Noroeste 0 1004.4 -0.5 36
2019-08-02 13:00:00 30.8 5 Este 21 Norte 0 1004.8 -0.1 42
2019-08-02 12:00:00 29.4 9 Nordeste 19 Nordeste 0 1005 0.4 47
2019-08-02 11:00:00 27.7 6 Norte 14 Norte 0 1004.9 0.8 56
2019-08-02 10:00:00 25.5 4 Oeste 9 Oeste 0 1004.9 0.7 61
2019-08-02 09:00:00 23.2 3 Oeste 10 Oeste 0 1004.6 1.1 69
2019-08-02 08:00:00 21.3 5 Oeste 10 Oeste 0 1004.1 0.8 79
2019-08-02 07:00:00 20.4 4 Oeste 9 Oeste 0 1004.2 1 82
2019-08-02 06:00:00 20.9 5 Oeste 10 Oeste 0 1003.5 0.3 80
2019-08-02 05:00:00 21.6 6 Sudoeste 11 Oeste 0 1003.3 -0.2 78
2019-08-02 04:00:00 21.7 0 Calma 5 Oeste 0 1003.2 -0.5 79
2019-08-02 03:00:00 21.9 3 Sudoeste 6 Oeste 0 1003.2 -0.1 78
2019-08-02 02:00:00 22.8 3 Oeste 7 Oeste 0 1003.5 0.3 75
2019-08-02 01:00:00 23.5 3 Sudoeste 5 Sudoeste 0 1003.7 1.4 72
2019-08-02 00:00:00 24 3 Oeste 10 Oeste 0 1003.3 2 69
2019-08-01 23:00:00 24.4 4 Oeste 15 Norte 0 1003.2 2.5 67
2019-08-01 22:00:00 25.1 10 Norte 19 Norte 0 1002.3 1.9 62
2019-08-01 21:00:00 26.8 11 Norte 22 Norte 0 1001.3 0.7 56
2019-08-01 20:00:00 28.7 13 Norte 24 Norte 0 1000.7 -0.2 50
2019-08-01 19:00:00 29.9 16 Norte 32 Norte 0 1000.4 -0.8 47
2019-08-01 18:00:00 31.4 15 Norte 28 Norte 0 1000.6 -1.9 45
2019-08-01 17:00:00 31.4 16 Norte 27 Norte 0 1000.9 -1.6 44
2019-08-01 16:00:00 30.8 14 Nordeste 28 Nordeste 0 1001.2 -1.9 47
2019-08-01 15:00:00 30.8 13 Nordeste 21 Nordeste 0 1002.5 -0.7 46
2019-08-01 14:00:00 30.6 10 Nordeste 19 Norte 0 1002.5 -0.9 44
2019-08-01 13:00:00 29.8 5 Este 17 Este 0 1003.1 -0.6 46
2019-08-01 12:00:00 28.7 8 Nordeste 18 Este 0 1003.2 -0.4 50
2019-08-01 11:00:00 27 6 Nordeste 15 Nordeste 0 1003.4 0.1 60
2019-08-01 10:00:00 25.3 2 Noroeste 9 Noroeste 0 1003.7 0.4 70
2019-08-01 09:00:00 23.8 6 Oeste 10 Oeste 0 1003.6 0 78
2019-08-01 08:00:00 21.9 4 Norte 8 Sudoeste 0 1003.3 -0.2 87
2019-08-01 07:00:00 21.2 4 Sudoeste 6 Oeste 0 1003.3 -0.8 89
2019-08-01 06:00:00 20.6 2 Oeste 4 Norte 0 1003.6 -0.8 90
2019-08-01 05:00:00 21.4 0 Calma 10 Oeste 0 1003.5 -1.3 86
2019-08-01 04:00:00 21.8 5 Sudoeste 8 Oeste 0 1004.1 -0.9 87
2019-08-01 03:00:00 21.8 3 Nordeste 6 Este 0 1004.4 -0.7 86
2019-08-01 02:00:00 22.3 2 Sudeste 7 Este 0 1004.8 -0.8 85
2019-08-01 01:00:00 22.6 2 Sur 10 Norte 0 1005 0 84
2019-08-01 00:00:00 22.9 6 Norte 10 Norte 0 1005.1 0.8 83
2019-07-31 23:00:00 23.8 4 Nordeste 11 Norte 0 1005.6 1.7 79
2019-07-31 22:00:00 24.5 5 Nordeste 14 Este 0 1005 1 70
2019-07-31 21:00:00 25.8 9 Este 19 Este 0 1004.3 0 58
2019-07-31 20:00:00 26.8 14 Este 31 Nordeste 0 1003.9 -1.4 56
2019-07-31 19:00:00 27.8 18 Este 27 Este 0 1004 -1.3 48
2019-07-31 18:00:00 27.9 18 Nordeste 31 Nordeste 0 1004.3 -1.2 49
2019-07-31 17:00:00 28.6 15 Nordeste 30 Nordeste 0 1005.3 -0.3 50
2019-07-31 16:00:00 27.8 19 Nordeste 36 Nordeste 0 1005.3 -0.9 54
2019-07-31 15:00:00 29.1 22 Nordeste 35 Este 0 1005.5 -1.5 47
2019-07-31 14:00:00 29.5 16 Este 26 Este 0 1005.6 -0.6 48
2019-07-31 13:00:00 28 10 Norte 20 Norte 0 1006.2 -- 60
2019-07-31 12:00:00 25.8 12 Norte 33 Norte 0 1007 -- 62
2019-07-31 11:00:00 26.9 20 Norte -- -- -- 1006.2 -- 54
2019-07-31 10:00:00 -- -- -- -- -- -- -- -- --
2019-07-31 09:00:00 -- -- -- -- -- -- -- -- --
2019-07-31 08:00:00 -- -- -- -- -- -- -- -- --
2019-07-31 07:00:00 -- -- -- -- -- -- -- -- --
2019-07-31 06:00:00 -- -- -- -- -- -- -- -- --
2019-07-31 05:00:00 -- -- -- -- -- -- -- -- --
2019-07-31 04:00:00 -- -- -- -- -- -- -- -- --
2019-07-31 03:00:00 -- -- -- -- -- -- -- -- --
2019-07-31 02:00:00 -- -- -- -- -- -- -- -- --
2019-07-31 01:00:00 -- -- -- -- -- -- -- -- --
2019-07-31 00:00:00 -- -- -- -- -- -- -- -- --
2019-07-30 23:00:00 -- -- -- -- -- -- -- -- --
2019-07-30 22:00:00 -- -- -- -- -- -- -- -- --
2019-07-30 21:00:00 -- -- -- -- -- -- -- -- --
2019-07-30 20:00:00 -- -- -- -- -- -- -- -- --
2019-07-30 19:00:00 -- -- -- -- -- -- -- -- --
2019-07-30 18:00:00 -- -- -- -- -- -- -- -- --
2019-07-30 17:00:00 -- -- -- -- -- -- -- -- --
2019-07-30 16:00:00 -- -- -- -- -- -- -- -- --
2019-07-30 15:00:00 -- -- -- -- -- -- -- -- --
2019-07-30 14:00:00 -- -- -- -- -- -- -- -- --
2019-07-30 13:00:00 -- -- -- -- -- -- -- -- --
2019-07-30 12:00:00 -- -- -- -- -- -- -- -- --
2019-07-30 11:00:00 -- -- -- -- -- -- -- -- --
2019-07-30 10:00:00 -- -- -- -- -- -- -- -- --
2019-07-30 09:00:00 -- -- -- -- -- -- -- -- --
2019-07-30 08:00:00 -- -- -- -- -- -- -- -- --
2019-07-30 07:00:00 -- -- -- -- -- -- -- -- --
2019-07-30 06:00:00 -- -- -- -- -- -- -- -- --
2019-07-30 05:00:00 -- -- -- -- -- -- -- -- --
2019-07-30 04:00:00 -- -- -- -- -- -- -- -- --
2019-07-30 03:00:00 -- -- -- -- -- -- -- -- --
2019-07-30 02:00:00 -- -- -- -- -- -- -- -- --
2019-07-30 01:00:00 -- -- -- -- -- -- -- -- --
2019-07-30 00:00:00 -- -- -- -- -- -- -- -- --
2019-07-29 23:00:00 -- -- -- -- -- -- -- -- --
2019-07-29 22:00:00 -- -- -- -- -- -- -- -- --
2019-07-29 21:00:00 -- -- -- -- -- -- -- -- --
2019-07-29 20:00:00 -- -- -- -- -- -- -- -- --
2019-07-29 19:00:00 -- -- -- -- -- -- -- -- --
2019-07-29 18:00:00 -- -- -- -- -- -- -- -- --
2019-07-29 17:00:00 -- -- -- -- -- -- -- -- --
2019-07-29 16:00:00 -- -- -- -- -- -- -- -- --
2019-07-29 15:00:00 -- -- -- -- -- -- -- -- --
2019-07-29 14:00:00 -- -- -- -- -- -- -- -- --
2019-07-29 13:00:00 -- -- -- -- -- -- -- -- --
2019-07-29 12:00:00 -- -- -- -- -- -- -- -- --
2019-07-29 11:00:00 -- -- -- -- -- -- -- -- --
2019-07-29 10:00:00 -- -- -- -- -- -- -- -- --
2019-07-29 09:00:00 -- -- -- -- -- -- -- -- --
2019-07-29 08:00:00 -- -- -- -- -- -- -- -- --
2019-07-29 07:00:00 -- -- -- -- -- -- -- -- --
2019-07-29 06:00:00 -- -- -- -- -- -- -- -- --
2019-07-29 05:00:00 -- -- -- -- -- -- -- -- --
2019-07-29 04:00:00 -- -- -- -- -- -- -- -- --
2019-07-29 03:00:00 -- -- -- -- -- -- -- -- --
2019-07-29 02:00:00 -- -- -- -- -- -- -- -- --
2019-07-29 01:00:00 -- -- -- -- -- -- -- -- --
2019-07-29 00:00:00 -- -- -- -- -- -- -- -- --
2019-07-28 23:00:00 -- -- -- -- -- -- -- -- --
2019-07-28 22:00:00 -- -- -- -- -- -- -- -- --
2019-07-28 21:00:00 -- -- -- -- -- -- -- -- --
2019-07-28 20:00:00 -- -- -- -- -- -- -- -- --
2019-07-28 19:00:00 -- -- -- -- -- -- -- -- --
2019-07-28 18:00:00 -- -- -- -- -- -- -- -- --
2019-07-28 17:00:00 -- -- -- -- -- -- -- -- --
2019-07-28 16:00:00 -- -- -- -- -- -- -- -- --
2019-07-28 15:00:00 -- -- -- -- -- -- -- -- --
2019-07-28 14:00:00 -- -- -- -- -- -- -- -- --
2019-07-28 13:00:00 -- -- -- -- -- -- -- -- --
2019-07-28 12:00:00 -- -- -- -- -- -- -- -- --
2019-07-28 11:00:00 -- -- -- -- -- -- -- -- --
2019-07-28 10:00:00 -- -- -- -- -- -- -- -- --
2019-07-28 09:00:00 -- -- -- -- -- -- -- -- --
2019-07-28 08:00:00 -- -- -- -- -- -- -- -- --
2019-07-28 07:00:00 -- -- -- -- -- -- -- -- --
2019-07-28 06:00:00 -- -- -- -- -- -- -- -- --
2019-07-28 05:00:00 -- -- -- -- -- -- -- -- --
2019-07-28 04:00:00 -- -- -- -- -- -- -- -- --
2019-07-28 03:00:00 -- -- -- -- -- -- -- -- --
2019-07-28 02:00:00 -- -- -- -- -- -- -- -- --
2019-07-28 01:00:00 -- -- -- -- -- -- -- -- --
2019-07-28 00:00:00 -- -- -- -- -- -- -- -- --
2019-07-27 23:00:00 -- -- -- -- -- -- -- -- --
2019-07-26 12:00:00 -- -- -- -- -- -- -- -- --
2019-07-26 11:00:00 -- -- -- -- -- -- -- -- --
2019-07-26 10:00:00 -- -- -- -- -- -- -- -- --
2019-07-26 09:00:00 -- -- -- -- -- -- -- -- --
2019-07-26 08:00:00 -- -- -- -- -- -- -- -- --
2019-07-26 07:00:00 -- -- -- -- -- -- -- -- --
2019-07-26 06:00:00 -- -- -- -- -- -- -- -- --
2019-07-26 05:00:00 -- -- -- -- -- -- -- -- --
2019-07-26 04:00:00 -- -- -- -- -- -- -- -- --
2019-07-26 03:00:00 -- -- -- -- -- -- -- -- --
2019-07-26 02:00:00 -- -- -- -- -- -- -- -- --
2019-07-26 01:00:00 -- -- -- -- -- -- -- -- --
2019-07-26 00:00:00 -- -- -- -- -- -- -- -- --
2019-07-25 23:00:00 -- -- -- -- -- -- -- -- --
2019-07-25 22:00:00 -- -- -- -- -- -- -- -- --
2019-07-25 21:00:00 -- -- -- -- -- -- -- -- --
2019-07-25 20:00:00 -- -- -- -- -- -- -- -- --
2019-07-25 19:00:00 -- -- -- -- -- -- -- -- --
2019-07-25 18:00:00 -- -- -- -- -- -- -- -- --
2019-07-25 17:00:00 -- -- -- -- -- -- -- -- --
2019-07-25 16:00:00 -- -- -- -- -- -- -- -- --
2019-07-25 15:00:00 -- -- -- -- -- -- -- -- --
2019-07-25 14:00:00 -- -- -- -- -- -- -- -- --
2019-07-25 13:00:00 -- -- -- -- -- -- -- -- --
2019-07-25 12:00:00 -- -- -- -- -- -- -- -- --
2019-07-25 11:00:00 -- -- -- -- -- -- -- -- --
2019-07-25 10:00:00 -- -- -- -- -- -- -- -- --
2019-07-25 09:00:00 -- -- -- -- -- -- -- -- --
2019-07-25 08:00:00 -- -- -- -- -- -- -- -- --
2019-07-25 07:00:00 -- -- -- -- -- -- -- -- --
2019-07-25 06:00:00 -- -- -- -- -- -- -- -- --
2019-07-25 05:00:00 -- -- -- -- -- -- -- -- --
2019-07-25 04:00:00 -- -- -- -- -- -- -- -- --
2019-07-25 03:00:00 -- -- -- -- -- -- -- -- --
2019-07-25 02:00:00 -- -- -- -- -- -- -- -- --
2019-07-25 01:00:00 -- -- -- -- -- -- -- -- --
2019-07-25 00:00:00 -- -- -- -- -- -- -- -- --
2019-07-24 23:00:00 -- -- -- -- -- -- -- -- --
2019-07-24 22:00:00 -- -- -- -- -- -- -- -- --
2019-07-24 21:00:00 -- -- -- -- -- -- -- -- --
2019-07-24 20:00:00 -- -- -- -- -- -- -- -- --
2019-07-24 19:00:00 -- -- -- -- -- -- -- -- --
2019-07-24 18:00:00 -- -- -- -- -- -- -- -- --
2019-07-24 17:00:00 -- -- -- -- -- -- -- -- --
2019-07-24 16:00:00 -- -- -- -- -- -- -- -- --
2019-07-24 15:00:00 37.9 14 Nordeste 25 Nordeste 0 1003.8 -2 18
2019-07-24 14:00:00 35.5 11 Nordeste -- -- -- 1004.6 -- 24
2019-07-24 13:00:00 35.1 8 Norte 19 Nordeste 0 1005.2 -- 22
2019-07-24 12:00:00 33 4 Este -- -- -- 1005.8 -- 25
2019-07-24 11:00:00 -- -- -- -- -- -- -- -- --
2019-07-24 10:00:00 -- -- -- -- -- -- -- -- --
2019-07-24 09:00:00 -- -- -- -- -- -- -- -- --
2019-07-24 08:00:00 -- -- -- -- -- -- -- -- --
2019-07-24 07:00:00 -- -- -- -- -- -- -- -- --
2019-07-24 06:00:00 -- -- -- -- -- -- -- -- --
2019-07-24 05:00:00 -- -- -- -- -- -- -- -- --
2019-07-24 04:00:00 -- -- -- -- -- -- -- -- --
2019-07-24 03:00:00 -- -- -- -- -- -- -- -- --
2019-07-24 02:00:00 -- -- -- -- -- -- -- -- --
2019-07-24 01:00:00 -- -- -- -- -- -- -- -- --
2019-07-24 00:00:00 -- -- -- -- -- -- -- -- --
2019-07-23 23:00:00 -- -- -- -- -- -- -- -- --
2019-07-23 22:00:00 -- -- -- -- -- -- -- -- --
2019-07-23 21:00:00 -- -- -- -- -- -- -- -- --
2019-07-23 20:00:00 -- -- -- -- -- -- -- -- --
2019-07-23 19:00:00 -- -- -- -- -- -- -- -- --
2019-07-23 18:00:00 -- -- -- -- -- -- -- -- --
2019-07-23 17:00:00 -- -- -- -- -- -- -- -- --
2019-07-23 16:00:00 -- -- -- -- -- -- -- -- --
2019-07-23 15:00:00 -- -- -- -- -- -- -- -- --
2019-07-23 14:00:00 34.6 10 Nordeste 25 Nordeste 0 1006.6 -1.5 30
2019-07-23 13:00:00 33.2 6 Este 15 Nordeste 0 1007.3 -- 31
2019-07-23 12:00:00 31.5 6 Este 13 Norte 0 1007.8 -- 32
2019-07-23 11:00:00 29.5 4 Noroeste -- -- -- 1008.1 -- 38
2019-07-23 10:00:00 -- -- -- -- -- -- -- -- --
2019-07-23 09:00:00 -- -- -- -- -- -- -- -- --
2019-07-23 08:00:00 -- -- -- -- -- -- -- -- --
2019-07-23 07:00:00 -- -- -- -- -- -- -- -- --
2019-07-23 06:00:00 -- -- -- -- -- -- -- -- --
2019-07-23 05:00:00 -- -- -- -- -- -- -- -- --
2019-07-23 04:00:00 -- -- -- -- -- -- -- -- --
2019-07-23 03:00:00 -- -- -- -- -- -- -- -- --
2019-07-23 02:00:00 -- -- -- -- -- -- -- -- --
2019-07-23 01:00:00 -- -- -- -- -- -- -- -- --
2019-07-23 00:00:00 -- -- -- -- -- -- -- -- --
2019-07-22 23:00:00 -- -- -- -- -- -- -- -- --
2019-07-22 22:00:00 -- -- -- -- -- -- -- -- --
2019-07-22 21:00:00 29.4 10 Norte 24 Norte 0 1008.8 -0.3 46
2019-07-22 20:00:00 32.2 10 Nordeste 23 Norte 0 1008.6 -0.7 33
2019-07-22 19:00:00 32.9 13 Nordeste 31 Nordeste 0 1008.6 -0.8 32
2019-07-22 18:00:00 33.3 18 Nordeste 31 Este 0 1009.1 -0.7 33
2019-07-22 17:00:00 34 18 Nordeste 33 Nordeste 0 1009.3 -1.1 30
2019-07-22 16:00:00 34 21 Este 34 Nordeste 0 1009.4 -1.5 30
2019-07-22 15:00:00 33.9 15 Nordeste 29 Este 0 1009.8 -1.6 28
2019-07-22 14:00:00 -- -- -- -- -- -- -- -- --
2019-07-22 13:00:00 31.7 10 Norte 23 Nordeste 0 1010.9 -0.6 44
2019-07-22 12:00:00 30.4 6 Este 17 Nordeste 0 1011.4 0.2 48
2019-07-22 11:00:00 28.9 6 Norte 12 Nordeste 0 1011.5 0.3 54
2019-07-22 10:00:00 27.3 3 Norte 9 Oeste 0 1011.5 0.8 64
2019-07-22 09:00:00 25.5 5 Oeste 10 Oeste 0 1011.2 0.8 70
2019-07-22 08:00:00 23.4 5 Oeste 9 Oeste 0 1011.2 0.8 76
2019-07-22 07:00:00 23.1 5 Oeste 11 Oeste 0 1010.7 0 76
2019-07-22 06:00:00 23.5 5 Oeste 12 Oeste 0 1010.4 -0.5 77
2019-07-22 05:00:00 23.6 7 Oeste 10 Oeste 0 1010.4 -1 76
2019-07-22 04:00:00 23.6 6 Oeste 9 Oeste 0 1010.7 -0.8 78
2019-07-22 03:00:00 23.7 5 Sudoeste 7 Sudoeste 0 1010.9 -0.2 77
2019-07-22 02:00:00 23.9 4 Oeste 9 Oeste 0 1011.4 0.6 80
2019-07-22 01:00:00 24.4 6 Oeste 10 Oeste 0 1011.5 1.8 81
2019-07-22 00:00:00 24.9 6 Oeste 9 Oeste 0 1011.1 2.1 75
2019-07-21 23:00:00 25.6 3 Noroeste 7 Norte 0 1010.8 2.2 68
2019-07-21 22:00:00 26.7 4 Nordeste 19 Este 0 1009.7 1.5 59
2019-07-21 21:00:00 29.1 14 Este 22 Nordeste 0 1009 0.4 46
2019-07-21 20:00:00 31.4 15 Nordeste 28 Este 0 1008.6 -0.1 24
2019-07-21 19:00:00 32.3 17 Este 28 Este 0 1008.2 -0.8 28
2019-07-21 18:00:00 32.4 19 Este 32 Nordeste 0 1008.6 -0.7 38
2019-07-21 17:00:00 33.4 18 Nordeste 35 Este 0 1008.7 -0.8 29
2019-07-21 16:00:00 33.9 18 Nordeste 35 Nordeste 0 1009 -0.8 27
2019-07-21 15:00:00 33.1 19 Nordeste 34 Nordeste 0 1009.3 -0.4 32
2019-07-21 14:00:00 32.7 19 Nordeste 35 Nordeste 0 1009.5 -0.1 33
2019-07-21 13:00:00 31.5 15 Norte 29 Noroeste 0 1009.8 0.2 47
2019-07-21 12:00:00 29.6 12 Nordeste 23 Nordeste 0 1009.7 0.5 53
2019-07-21 11:00:00 28.7 8 Nordeste 17 Nordeste 0 1009.6 1 59
2019-07-21 10:00:00 26.9 4 Oeste 9 Oeste 0 1009.6 1.5 71
2019-07-21 09:00:00 25.1 0 Calma 8 Oeste 0 1009.2 1.4 76
2019-07-21 08:00:00 23 4 Oeste 8 Oeste 0 1008.6 1.1 84
2019-07-21 07:00:00 22.5 4 Oeste 9 Sudoeste 0 1008.1 0.6 88
2019-07-21 06:00:00 23.1 7 Sudoeste 10 Oeste 0 1007.8 0.1 88
2019-07-21 05:00:00 23.6 0 Calma 5 Nordeste 0 1007.5 -0.4 88
2019-07-21 04:00:00 24.2 0 Calma 5 Oeste 0 1007.5 -0.6 86
2019-07-21 03:00:00 24.2 2 Noroeste 6 Oeste 0 1007.7 -0.2 87
2019-07-21 02:00:00 24.2 3 Oeste 6 Oeste 0 1007.9 0.3 86
2019-07-21 01:00:00 24.6 4 Oeste 7 Oeste 0 1008.1 1.6 85
2019-07-21 00:00:00 25.2 4 Oeste 7 Oeste 0 1007.9 2.2 81
2019-07-20 23:00:00 25.5 4 Noroeste 15 Nordeste 0 1007.6 2.6 78
2019-07-20 22:00:00 26.4 8 Norte 15 Norte 0 1006.5 2 71
2019-07-20 21:00:00 27.3 12 Nordeste 29 Nordeste 0 1005.7 1.3 65
2019-07-20 20:00:00 28.7 18 Nordeste 30 Nordeste 0 1005 0.8 59
2019-07-20 19:00:00 30.4 17 Nordeste 32 Nordeste 0 1004.5 0.1 53
2019-07-20 18:00:00 31.7 17 Nordeste 32 Nordeste 0 1004.4 0 48
2019-07-20 17:00:00 32.1 21 Nordeste 32 Norte 0 1004.2 -0.6 45
2019-07-20 16:00:00 33.2 21 Nordeste 33 Norte 0 1004.4 -0.7 34
2019-07-20 15:00:00 33.5 14 Nordeste 28 Norte 0 1004.4 -0.8 35
2019-07-20 14:00:00 32.7 10 Nordeste 21 Nordeste 0 1004.8 -0.5 41
2019-07-20 13:00:00 31.2 6 Este 20 Nordeste 0 1005.1 -0.4 47
2019-07-20 12:00:00 29.5 8 Nordeste 16 Nordeste 0 1005.2 -0.1 49
2019-07-20 11:00:00 27.9 5 Norte 13 Nordeste 0 1005.3 0.5 58
2019-07-20 10:00:00 26.1 3 Nordeste 9 Nordeste 0 1005.5 1.1 71
2019-07-20 09:00:00 23.9 0 Calma 11 Oeste 0 1005.3 0.9 81
2019-07-20 08:00:00 22.8 5 Oeste 10 Oeste 0 1004.8 0.7 81
2019-07-20 07:00:00 21.9 5 Oeste 8 Oeste 0 1004.4 0.1 85
2019-07-20 06:00:00 22 0 Calma 4 Norte 0 1004.4 0.1 87
2019-07-20 05:00:00 23.1 0 Calma 7 Oeste 0 1004.1 -0.5 84
2019-07-20 04:00:00 23.1 5 Oeste 10 Oeste 0 1004.3 -0.4 83
2019-07-20 03:00:00 23.2 3 Noroeste 12 Oeste 0 1004.3 -0.1 84
2019-07-20 02:00:00 23.5 5 Oeste 12 Oeste 0 1004.6 0.4 82
2019-07-20 01:00:00 23.9 2 Noroeste 11 Oeste 0 1004.7 1 80
2019-07-20 00:00:00 24.5 5 Oeste 14 Oeste 0 1004.4 1.3 76
2019-07-19 23:00:00 25.2 6 Noroeste 13 Oeste 0 1004.2 1.5 72
2019-07-19 22:00:00 26.9 8 Oeste 19 Noroeste 0 1003.7 1.1 63
2019-07-19 21:00:00 29.4 13 Noroeste 23 Norte 0 1003.1 0.4 52
2019-07-19 20:00:00 32.1 11 Norte 19 Nordeste 0 1002.7 -0.2 42
2019-07-19 19:00:00 32.9 13 Nordeste 26 Nordeste 0 1002.6 -0.7 37
2019-07-19 18:00:00 33.8 18 Este 26 Este 0 1002.7 -1.4 33
2019-07-19 17:00:00 34.3 15 Nordeste 30 Este 0 1002.9 -1.9 31
2019-07-19 16:00:00 33.9 11 Nordeste 35 Noroeste 0 1003.3 -2.1 39
2019-07-19 15:00:00 34.1 18 Norte 33 Norte 0 1004.1 -2 39
2019-07-19 14:00:00 32.9 8 Nordeste 21 Este 0 1004.8 -1.5 38
2019-07-19 13:00:00 31.4 3 Noroeste 18 Nordeste 0 1005.4 -0.9 44
2019-07-19 12:00:00 29.8 7 Norte 17 Nordeste 0 1006.1 0 47
2019-07-19 11:00:00 28.3 6 Sudeste 14 Este 0 1006.3 0.7 54
2019-07-19 10:00:00 26.3 4 Sudoeste 9 Oeste 0 1006.3 1 59
2019-07-19 09:00:00 23.4 6 Sudoeste 12 Sudoeste 0 1006.1 1.2 61
2019-07-19 08:00:00 21.4 6 Oeste 13 Oeste 0 1005.6 0.6 71
2019-07-19 07:00:00 21 9 Sudoeste 14 Oeste 0 1005.3 0.1 74
2019-07-19 06:00:00 21.3 8 Oeste 14 Oeste 0 1004.9 -0.5 75
2019-07-19 05:00:00 22 8 Oeste 15 Oeste 0 1005 -0.5 75
2019-07-19 04:00:00 22.6 7 Oeste 12 Sudoeste 0 1005.2 -0.2 75
2019-07-19 03:00:00 23.4 7 Oeste 10 Oeste 0 1005.4 0.3 74
2019-07-19 02:00:00 23.8 6 Oeste 10 Noroeste 0 1005.5 0.9 73
2019-07-19 01:00:00 24.1 6 Oeste 12 Oeste 0 1005.4 1.6 72
2019-07-19 00:00:00 24.7 6 Oeste 10 Noroeste 0 1005.1 2.1 70